sensor_id;sensor_type;location;lat;lon;timestamp;pressure;altitude;pressure_sealevel;temperature;humidity
8416;BME280;4245;42.120;24.732;2023-05-23T00:00:41;99020.63;;;15.93;100.00
8416;BME280;4245;42.120;24.732;2023-05-23T00:03:09;99024.19;;;15.84;100.00
8416;BME280;4245;42.120;24.732;2023-05-23T00:05:36;99018.16;;;15.82;100.00
8416;BME280;4245;42.120;24.732;2023-05-23T00:08:03;99013.59;;;15.92;100.00
8416;BME280;4245;42.120;24.732;2023-05-23T00:10:30;99014.72;;;16.17;100.00
8416;BME280;4245;42.120;24.732;2023-05-23T00:12:56;99015.34;;;16.11;100.00
8416;BME280;4245;42.120;24.732;2023-05-23T00:15:23;99019.69;;;16.12;100.00
8416;BME280;4245;42.120;24.732;2023-05-23T00:17:50;99025.53;;;15.98;100.00
8416;BME280;4245;42.120;24.732;2023-05-23T00:20:18;99013.59;;;15.92;100.00
8416;BME280;4245;42.120;24.732;2023-05-23T00:22:45;99010.66;;;15.86;100.00
8416;BME280;4245;42.120;24.732;2023-05-23T00:25:12;99010.22;;;15.90;100.00
8416;BME280;4245;42.120;24.732;2023-05-23T00:27:39;99010.25;;;15.81;100.00
8416;BME280;4245;42.120;24.732;2023-05-23T00:30:07;99013.47;;;15.84;100.00
8416;BME280;4245;42.120;24.732;2023-05-23T00:32:33;99003.75;;;15.83;100.00
8416;BME280;4245;42.120;24.732;2023-05-23T00:35:00;99004.59;;;15.84;100.00
8416;BME280;4245;42.120;24.732;2023-05-23T00:37:28;99011.63;;;15.85;100.00
8416;BME280;4245;42.120;24.732;2023-05-23T00:39:56;98997.78;;;15.89;100.00
8416;BME280;4245;42.120;24.732;2023-05-23T00:42:23;98998.25;;;15.85;100.00
8416;BME280;4245;42.120;24.732;2023-05-23T00:44:50;98997.25;;;15.86;100.00
8416;BME280;4245;42.120;24.732;2023-05-23T00:47:16;98995.59;;;15.75;100.00
8416;BME280;4245;42.120;24.732;2023-05-23T00:49:44;99000.41;;;15.72;100.00
8416;BME280;4245;42.120;24.732;2023-05-23T00:52:11;98998.00;;;15.69;100.00
8416;BME280;4245;42.120;24.732;2023-05-23T00:54:39;98993.09;;;15.64;100.00
8416;BME280;4245;42.120;24.732;2023-05-23T00:57:06;98994.38;;;15.50;100.00
8416;BME280;4245;42.120;24.732;2023-05-23T00:59:35;99005.25;;;15.58;100.00
8416;BME280;4245;42.120;24.732;2023-05-23T01:02:03;99004.13;;;15.61;100.00
8416;BME280;4245;42.120;24.732;2023-05-23T01:04:30;98991.22;;;15.74;100.00
8416;BME280;4245;42.120;24.732;2023-05-23T01:06:58;98993.97;;;15.55;100.00
8416;BME280;4245;42.120;24.732;2023-05-23T01:09:27;98994.28;;;15.42;100.00
8416;BME280;4245;42.120;24.732;2023-05-23T01:12:07;98991.50;;;15.34;100.00
8416;BME280;4245;42.120;24.732;2023-05-23T01:14:43;98994.84;;;15.36;100.00
8416;BME280;4245;42.120;24.732;2023-05-23T01:17:16;98990.22;;;15.38;100.00
8416;BME280;4245;42.120;24.732;2023-05-23T01:19:53;98988.06;;;15.42;100.00
8416;BME280;4245;42.120;24.732;2023-05-23T01:22:32;98989.38;;;15.28;100.00
8416;BME280;4245;42.120;24.732;2023-05-23T01:25:09;98986.72;;;15.18;100.00
8416;BME280;4245;42.120;24.732;2023-05-23T01:27:48;98986.44;;;15.21;100.00
8416;BME280;4245;42.120;24.732;2023-05-23T01:30:18;98980.22;;;15.21;100.00
8416;BME280;4245;42.120;24.732;2023-05-23T01:32:47;98986.16;;;15.25;100.00
8416;BME280;4245;42.120;24.732;2023-05-23T01:35:18;98984.75;;;15.11;100.00
8416;BME280;4245;42.120;24.732;2023-05-23T01:37:47;98983.50;;;15.15;100.00
8416;BME280;4245;42.120;24.732;2023-05-23T01:40:14;98983.78;;;14.93;100.00
8416;BME280;4245;42.120;24.732;2023-05-23T01:42:41;98984.50;;;14.95;100.00
8416;BME280;4245;42.120;24.732;2023-05-23T01:45:10;98992.25;;;14.98;100.00
8416;BME280;4245;42.120;24.732;2023-05-23T01:47:38;98988.31;;;14.92;100.00
8416;BME280;4245;42.120;24.732;2023-05-23T01:50:07;98992.53;;;14.95;100.00
8416;BME280;4245;42.120;24.732;2023-05-23T01:52:34;98990.13;;;14.92;100.00
8416;BME280;4245;42.120;24.732;2023-05-23T01:55:04;98980.72;;;14.78;100.00
8416;BME280;4245;42.120;24.732;2023-05-23T01:57:35;98985.78;;;14.91;100.00
8416;BME280;4245;42.120;24.732;2023-05-23T02:00:03;98978.31;;;14.94;100.00
8416;BME280;4245;42.120;24.732;2023-05-23T02:02:32;98982.81;;;15.03;100.00
8416;BME280;4245;42.120;24.732;2023-05-23T02:04:59;98984.22;;;14.98;100.00
8416;BME280;4245;42.120;24.732;2023-05-23T02:07:26;98978.31;;;14.85;100.00
8416;BME280;4245;42.120;24.732;2023-05-23T02:09:54;98976.22;;;14.78;100.00
8416;BME280;4245;42.120;24.732;2023-05-23T02:12:21;98977.19;;;14.77;100.00
8416;BME280;4245;42.120;24.732;2023-05-23T02:14:48;98980.16;;;14.74;100.00
8416;BME280;4245;42.120;24.732;2023-05-23T02:17:16;98978.75;;;14.70;100.00
8416;BME280;4245;42.120;24.732;2023-05-23T02:19:45;98972.25;;;14.73;100.00
8416;BME280;4245;42.120;24.732;2023-05-23T02:22:11;98981.56;;;14.69;100.00
8416;BME280;4245;42.120;24.732;2023-05-23T02:24:38;98973.53;;;14.78;100.00
8416;BME280;4245;42.120;24.732;2023-05-23T02:27:05;98972.44;;;14.71;100.00
8416;BME280;4245;42.120;24.732;2023-05-23T02:29:32;98984.66;;;14.55;100.00
8416;BME280;4245;42.120;24.732;2023-05-23T02:31:59;98976.91;;;14.52;100.00
8416;BME280;4245;42.120;24.732;2023-05-23T02:34:26;98983.13;;;14.52;100.00
8416;BME280;4245;42.120;24.732;2023-05-23T02:36:54;98983.38;;;14.59;100.00
8416;BME280;4245;42.120;24.732;2023-05-23T02:39:21;98986.47;;;14.64;100.00
8416;BME280;4245;42.120;24.732;2023-05-23T02:41:47;98980.03;;;14.57;100.00
8416;BME280;4245;42.120;24.732;2023-05-23T02:44:14;98981.53;;;14.50;100.00
8416;BME280;4245;42.120;24.732;2023-05-23T02:46:44;98982.94;;;14.44;100.00
8416;BME280;4245;42.120;24.732;2023-05-23T02:49:10;98988.47;;;14.52;100.00
8416;BME280;4245;42.120;24.732;2023-05-23T02:51:37;98977.91;;;14.51;100.00
8416;BME280;4245;42.120;24.732;2023-05-23T02:54:05;98978.31;;;14.46;100.00
8416;BME280;4245;42.120;24.732;2023-05-23T02:56:32;98980.41;;;14.43;100.00
8416;BME280;4245;42.120;24.732;2023-05-23T02:58:59;98976.31;;;14.39;100.00
8416;BME280;4245;42.120;24.732;2023-05-23T03:01:25;98977.47;;;14.36;100.00
8416;BME280;4245;42.120;24.732;2023-05-23T03:03:52;98973.81;;;14.47;100.00
8416;BME280;4245;42.120;24.732;2023-05-23T03:06:19;98975.00;;;14.33;100.00
8416;BME280;4245;42.120;24.732;2023-05-23T03:08:46;98976.03;;;14.32;100.00
8416;BME280;4245;42.120;24.732;2023-05-23T03:11:15;98976.03;;;14.32;100.00
8416;BME280;4245;42.120;24.732;2023-05-23T03:13:41;98963.63;;;14.31;100.00
8416;BME280;4245;42.120;24.732;2023-05-23T03:16:08;98977.84;;;14.31;100.00
8416;BME280;4245;42.120;24.732;2023-05-23T03:18:36;98973.88;;;14.16;100.00
8416;BME280;4245;42.120;24.732;2023-05-23T03:21:06;98979.63;;;14.12;100.00
8416;BME280;4245;42.120;24.732;2023-05-23T03:23:33;98974.63;;;14.28;100.00
8416;BME280;4245;42.120;24.732;2023-05-23T03:26:01;98976.88;;;14.32;100.00
8416;BME280;4245;42.120;24.732;2023-05-23T03:28:29;98981.38;;;14.32;100.00
8416;BME280;4245;42.120;24.732;2023-05-23T03:30:56;98977.97;;;14.30;100.00
8416;BME280;4245;42.120;24.732;2023-05-23T03:33:23;98981.06;;;14.35;100.00
8416;BME280;4245;42.120;24.732;2023-05-23T03:35:50;98982.81;;;14.36;100.00
8416;BME280;4245;42.120;24.732;2023-05-23T03:38:17;98986.41;;;14.35;100.00
8416;BME280;4245;42.120;24.732;2023-05-23T03:40:44;98985.56;;;14.34;100.00
8416;BME280;4245;42.120;24.732;2023-05-23T03:43:11;98986.41;;;14.35;100.00
8416;BME280;4245;42.120;24.732;2023-05-23T03:45:39;98984.94;;;14.42;100.00
8416;BME280;4245;42.120;24.732;2023-05-23T03:48:06;98979.25;;;14.35;100.00
8416;BME280;4245;42.120;24.732;2023-05-23T03:50:33;98983.91;;;14.43;100.00
8416;BME280;4245;42.120;24.732;2023-05-23T03:52:59;98981.38;;;14.32;100.00
8416;BME280;4245;42.120;24.732;2023-05-23T03:55:26;98982.81;;;14.55;100.00
8416;BME280;4245;42.120;24.732;2023-05-23T03:57:56;98979.72;;;14.50;100.00
8416;BME280;4245;42.120;24.732;2023-05-23T04:00:23;98984.34;;;14.58;100.00
8416;BME280;4245;42.120;24.732;2023-05-23T04:02:52;98984.66;;;14.74;100.00
8416;BME280;4245;42.120;24.732;2023-05-23T04:05:18;98980.25;;;15.02;100.00
8416;BME280;4245;42.120;24.732;2023-05-23T04:07:45;98988.47;;;14.81;100.00
8416;BME280;4245;42.120;24.732;2023-05-23T04:10:13;98980.56;;;14.79;100.00
8416;BME280;4245;42.120;24.732;2023-05-23T04:12:40;98983.81;;;14.83;100.00
8416;BME280;4245;42.120;24.732;2023-05-23T04:15:08;98991.38;;;14.97;100.00
8416;BME280;4245;42.120;24.732;2023-05-23T04:17:35;98985.75;;;15.19;100.00
8416;BME280;4245;42.120;24.732;2023-05-23T04:20:06;98984.44;;;15.33;100.00
8416;BME280;4245;42.120;24.732;2023-05-23T04:22:33;98992.31;;;15.54;100.00
8416;BME280;4245;42.120;24.732;2023-05-23T04:25:00;98984.50;;;15.70;100.00
8416;BME280;4245;42.120;24.732;2023-05-23T04:27:28;98993.19;;;15.82;100.00
8416;BME280;4245;42.120;24.732;2023-05-23T04:29:55;98993.03;;;15.83;100.00
8416;BME280;4245;42.120;24.732;2023-05-23T04:32:22;98992.56;;;15.97;100.00
8416;BME280;4245;42.120;24.732;2023-05-23T04:34:49;98998.94;;;16.14;100.00
8416;BME280;4245;42.120;24.732;2023-05-23T04:37:18;98999.28;;;16.29;100.00
8416;BME280;4245;42.120;24.732;2023-05-23T04:39:46;99003.69;;;16.47;100.00
8416;BME280;4245;42.120;24.732;2023-05-23T04:42:13;99000.81;;;16.59;100.00
8416;BME280;4245;42.120;24.732;2023-05-23T04:44:40;99009.31;;;16.72;100.00
8416;BME280;4245;42.120;24.732;2023-05-23T04:47:07;98997.13;;;16.95;100.00
8416;BME280;4245;42.120;24.732;2023-05-23T04:49:35;99001.78;;;17.11;100.00
8416;BME280;4245;42.120;24.732;2023-05-23T04:52:01;98996.31;;;17.20;100.00
8416;BME280;4245;42.120;24.732;2023-05-23T04:54:30;99003.72;;;17.44;100.00
8416;BME280;4245;42.120;24.732;2023-05-23T04:56:57;99010.91;;;17.61;100.00
8416;BME280;4245;42.120;24.732;2023-05-23T04:59:24;99011.84;;;17.78;100.00
8416;BME280;4245;42.120;24.732;2023-05-23T05:01:51;99011.59;;;17.97;100.00
8416;BME280;4245;42.120;24.732;2023-05-23T05:04:18;99013.53;;;18.13;100.00
8416;BME280;4245;42.120;24.732;2023-05-23T05:06:44;99008.41;;;18.36;100.00
8416;BME280;4245;42.120;24.732;2023-05-23T05:09:12;99016.00;;;18.48;100.00
8416;BME280;4245;42.120;24.732;2023-05-23T05:11:41;99011.06;;;18.78;100.00
8416;BME280;4245;42.120;24.732;2023-05-23T05:14:07;99017.63;;;18.99;97.87
8416;BME280;4245;42.120;24.732;2023-05-23T05:16:34;99019.16;;;19.18;96.09
8416;BME280;4245;42.120;24.732;2023-05-23T05:19:02;99022.53;;;19.28;95.07
8416;BME280;4245;42.120;24.732;2023-05-23T05:21:28;99015.13;;;19.55;94.26
8416;BME280;4245;42.120;24.732;2023-05-23T05:23:55;99022.84;;;19.74;93.87
8416;BME280;4245;42.120;24.732;2023-05-23T05:26:24;99017.03;;;20.01;90.91
8416;BME280;4245;42.120;24.732;2023-05-23T05:28:52;99027.09;;;20.15;90.45
8416;BME280;4245;42.120;24.732;2023-05-23T05:31:19;99021.59;;;19.92;91.00
8416;BME280;4245;42.120;24.732;2023-05-23T05:33:46;99027.13;;;20.07;92.60
8416;BME280;4245;42.120;24.732;2023-05-23T05:36:14;99030.47;;;20.09;93.07
8416;BME280;4245;42.120;24.732;2023-05-23T05:38:40;99032.06;;;19.87;93.47
8416;BME280;4245;42.120;24.732;2023-05-23T05:41:07;99036.84;;;19.53;95.94
8416;BME280;4245;42.120;24.732;2023-05-23T05:43:34;99032.31;;;19.53;96.58
8416;BME280;4245;42.120;24.732;2023-05-23T05:46:02;99035.84;;;19.46;96.30
8416;BME280;4245;42.120;24.732;2023-05-23T05:48:29;99031.56;;;19.84;95.14
8416;BME280;4245;42.120;24.732;2023-05-23T05:50:56;99034.28;;;19.84;93.34
8416;BME280;4245;42.120;24.732;2023-05-23T05:53:25;99032.56;;;19.91;92.80
8416;BME280;4245;42.120;24.732;2023-05-23T05:55:52;99034.94;;;19.86;93.96
8416;BME280;4245;42.120;24.732;2023-05-23T05:58:19;99034.41;;;19.99;92.72
8416;BME280;4245;42.120;24.732;2023-05-23T06:00:46;99038.66;;;20.40;90.35
8416;BME280;4245;42.120;24.732;2023-05-23T06:03:15;99043.03;;;20.41;87.14
8416;BME280;4245;42.120;24.732;2023-05-23T06:05:42;99040.50;;;20.70;85.35
8416;BME280;4245;42.120;24.732;2023-05-23T06:08:08;99037.91;;;21.08;83.69
8416;BME280;4245;42.120;24.732;2023-05-23T06:10:36;99047.41;;;21.49;81.57
8416;BME280;4245;42.120;24.732;2023-05-23T06:13:03;99042.00;;;22.01;81.11
8416;BME280;4245;42.120;24.732;2023-05-23T06:15:30;99041.88;;;22.24;78.12
8416;BME280;4245;42.120;24.732;2023-05-23T06:17:57;99036.03;;;22.21;76.14
8416;BME280;4245;42.120;24.732;2023-05-23T06:20:25;99030.59;;;22.35;77.33
8416;BME280;4245;42.120;24.732;2023-05-23T06:22:52;99035.13;;;22.64;76.23
8416;BME280;4245;42.120;24.732;2023-05-23T06:25:19;99041.72;;;23.12;72.31
8416;BME280;4245;42.120;24.732;2023-05-23T06:27:46;99041.50;;;23.35;70.67
8416;BME280;4245;42.120;24.732;2023-05-23T06:30:14;99040.69;;;23.13;72.68
8416;BME280;4245;42.120;24.732;2023-05-23T06:32:40;99042.94;;;23.10;71.88
8416;BME280;4245;42.120;24.732;2023-05-23T06:35:08;99042.13;;;22.73;73.71
8416;BME280;4245;42.120;24.732;2023-05-23T06:37:36;99033.69;;;22.83;72.89
8416;BME280;4245;42.120;24.732;2023-05-23T06:40:05;99026.63;;;23.03;76.40
8416;BME280;4245;42.120;24.732;2023-05-23T06:42:31;99042.16;;;23.16;72.76
8416;BME280;4245;42.120;24.732;2023-05-23T06:47:33;99035.66;;;23.31;70.08
8416;BME280;4245;42.120;24.732;2023-05-23T06:50:01;99035.25;;;23.34;69.15
8416;BME280;4245;42.120;24.732;2023-05-23T06:52:28;99033.38;;;23.56;68.50
8416;BME280;4245;42.120;24.732;2023-05-23T06:54:56;99027.78;;;23.36;68.33
8416;BME280;4245;42.120;24.732;2023-05-23T06:57:22;99022.09;;;23.80;67.72
8416;BME280;4245;42.120;24.732;2023-05-23T06:59:49;99025.09;;;23.92;66.97
8416;BME280;4245;42.120;24.732;2023-05-23T07:02:16;99031.00;;;24.30;64.52
8416;BME280;4245;42.120;24.732;2023-05-23T07:04:43;99026.84;;;24.41;63.79
8416;BME280;4245;42.120;24.732;2023-05-23T07:07:09;99024.47;;;24.72;62.98
8416;BME280;4245;42.120;24.732;2023-05-23T07:09:36;99015.91;;;24.68;64.38
8416;BME280;4245;42.120;24.732;2023-05-23T07:12:05;99030.22;;;25.03;62.24
8416;BME280;4245;42.120;24.732;2023-05-23T07:14:32;99020.63;;;25.14;60.73
8416;BME280;4245;42.120;24.732;2023-05-23T07:17:00;99022.47;;;24.94;62.41
8416;BME280;4245;42.120;24.732;2023-05-23T07:19:27;99012.25;;;25.02;61.52
8416;BME280;4245;42.120;24.732;2023-05-23T07:21:53;99018.16;;;25.45;61.61
8416;BME280;4245;42.120;24.732;2023-05-23T07:24:20;99015.25;;;25.60;62.16
8416;BME280;4245;42.120;24.732;2023-05-23T07:26:47;99028.41;;;25.89;58.58
8416;BME280;4245;42.120;24.732;2023-05-23T07:29:15;99017.53;;;25.63;59.53
8416;BME280;4245;42.120;24.732;2023-05-23T07:31:42;99015.88;;;25.69;59.20
8416;BME280;4245;42.120;24.732;2023-05-23T07:34:08;99007.69;;;25.82;58.94
8416;BME280;4245;42.120;24.732;2023-05-23T07:36:35;99000.31;;;26.02;57.18
8416;BME280;4245;42.120;24.732;2023-05-23T07:39:05;99008.06;;;25.99;57.89
8416;BME280;4245;42.120;24.732;2023-05-23T07:41:32;99011.16;;;26.15;57.23
8416;BME280;4245;42.120;24.732;2023-05-23T07:43:58;99010.81;;;25.99;56.79
8416;BME280;4245;42.120;24.732;2023-05-23T07:46:26;99010.75;;;26.18;56.87
8416;BME280;4245;42.120;24.732;2023-05-23T07:48:53;99015.56;;;26.74;54.70
8416;BME280;4245;42.120;24.732;2023-05-23T07:51:21;99014.91;;;26.78;55.04
8416;BME280;4245;42.120;24.732;2023-05-23T07:53:47;99013.81;;;27.24;53.38
8416;BME280;4245;42.120;24.732;2023-05-23T07:56:14;99005.03;;;27.47;53.70
8416;BME280;4245;42.120;24.732;2023-05-23T07:58:41;99009.09;;;27.69;51.75
8416;BME280;4245;42.120;24.732;2023-05-23T08:01:08;99007.53;;;27.98;48.79
8416;BME280;4245;42.120;24.732;2023-05-23T08:03:36;99009.50;;;28.09;51.42
8416;BME280;4245;42.120;24.732;2023-05-23T08:06:03;99014.34;;;28.32;47.27
8416;BME280;4245;42.120;24.732;2023-05-23T08:08:31;99009.50;;;28.09;45.98
8416;BME280;4245;42.120;24.732;2023-05-23T08:10:58;98999.59;;;27.72;47.27
8416;BME280;4245;42.120;24.732;2023-05-23T08:13:25;99007.94;;;28.20;46.64
8416;BME280;4245;42.120;24.732;2023-05-23T08:15:52;99008.47;;;28.65;43.18
8416;BME280;4245;42.120;24.732;2023-05-23T08:18:18;99001.25;;;28.52;43.35
8416;BME280;4245;42.120;24.732;2023-05-23T08:20:47;99003.16;;;28.51;43.00
8416;BME280;4245;42.120;24.732;2023-05-23T08:23:14;98999.06;;;28.61;44.29
8416;BME280;4245;42.120;24.732;2023-05-23T08:25:42;99002.97;;;29.13;41.38
8416;BME280;4245;42.120;24.732;2023-05-23T08:28:09;99003.66;;;29.50;42.74
8416;BME280;4245;42.120;24.732;2023-05-23T08:30:35;99003.91;;;29.83;40.17
8416;BME280;4245;42.120;24.732;2023-05-23T08:33:02;99007.38;;;29.67;41.72
8416;BME280;4245;42.120;24.732;2023-05-23T08:35:31;99003.72;;;29.96;39.79
8416;BME280;4245;42.120;24.732;2023-05-23T08:38:04;99013.34;;;30.10;40.34
8416;BME280;4245;42.120;24.732;2023-05-23T08:40:32;99003.69;;;30.71;37.85
8416;BME280;4245;42.120;24.732;2023-05-23T08:43:00;99006.50;;;30.88;37.50
8416;BME280;4245;42.120;24.732;2023-05-23T08:45:27;99002.31;;;30.57;36.12
8416;BME280;4245;42.120;24.732;2023-05-23T08:47:55;99003.47;;;30.09;37.29
8416;BME280;4245;42.120;24.732;2023-05-23T08:50:27;99002.56;;;30.44;39.21
8416;BME280;4245;42.120;24.732;2023-05-23T08:52:56;99006.94;;;30.68;35.79
8416;BME280;4245;42.120;24.732;2023-05-23T08:55:25;98998.72;;;29.93;37.61
8416;BME280;4245;42.120;24.732;2023-05-23T08:57:53;98997.03;;;29.80;37.58
8416;BME280;4245;42.120;24.732;2023-05-23T09:00:21;99002.31;;;30.57;36.53
8416;BME280;4245;42.120;24.732;2023-05-23T09:02:48;98994.16;;;30.22;36.61
8416;BME280;4245;42.120;24.732;2023-05-23T09:05:14;99001.03;;;29.31;38.78
8416;BME280;4245;42.120;24.732;2023-05-23T09:07:42;99001.19;;;29.48;38.62
8416;BME280;4245;42.120;24.732;2023-05-23T09:10:09;98995.81;;;29.12;37.76
8416;BME280;4245;42.120;24.732;2023-05-23T09:12:38;98991.41;;;28.99;37.56
8416;BME280;4245;42.120;24.732;2023-05-23T09:15:06;98992.91;;;28.65;39.19
8416;BME280;4245;42.120;24.732;2023-05-23T09:17:33;98985.63;;;28.23;40.46
8416;BME280;4245;42.120;24.732;2023-05-23T09:20:00;98989.00;;;28.25;40.09
8416;BME280;4245;42.120;24.732;2023-05-23T09:22:29;98990.41;;;28.27;41.50
8416;BME280;4245;42.120;24.732;2023-05-23T09:24:56;98990.38;;;28.82;40.01
8416;BME280;4245;42.120;24.732;2023-05-23T09:27:23;98995.69;;;29.36;37.88
8416;BME280;4245;42.120;24.732;2023-05-23T09:29:51;98995.47;;;29.73;35.60
8416;BME280;4245;42.120;24.732;2023-05-23T09:32:19;98997.38;;;29.84;34.66
8416;BME280;4245;42.120;24.732;2023-05-23T09:34:55;98993.09;;;30.11;33.66
8416;BME280;4245;42.120;24.732;2023-05-23T09:37:27;98987.94;;;29.33;36.10
8416;BME280;4245;42.120;24.732;2023-05-23T09:39:56;98986.66;;;29.59;35.47
8416;BME280;4245;42.120;24.732;2023-05-23T09:42:22;98983.47;;;29.97;34.87
8416;BME280;4245;42.120;24.732;2023-05-23T09:44:50;98983.63;;;30.31;33.93
8416;BME280;4245;42.120;24.732;2023-05-23T09:47:19;98990.84;;;30.08;34.33
8416;BME280;4245;42.120;24.732;2023-05-23T09:49:45;98991.69;;;30.09;35.28
8416;BME280;4245;42.120;24.732;2023-05-23T09:52:12;98991.34;;;30.05;35.46
8416;BME280;4245;42.120;24.732;2023-05-23T09:54:39;98988.44;;;30.12;36.22
8416;BME280;4245;42.120;24.732;2023-05-23T09:57:09;98988.31;;;30.07;35.15
8416;BME280;4245;42.120;24.732;2023-05-23T09:59:38;98988.22;;;30.02;34.99
8416;BME280;4245;42.120;24.732;2023-05-23T10:02:10;98984.78;;;30.06;34.17
8416;BME280;4245;42.120;24.732;2023-05-23T10:04:38;98984.63;;;30.13;34.50
8416;BME280;4245;42.120;24.732;2023-05-23T10:07:11;98982.75;;;30.02;34.67
8416;BME280;4245;42.120;24.732;2023-05-23T10:09:41;98983.81;;;30.12;34.86
8416;BME280;4245;42.120;24.732;2023-05-23T10:15:06;98988.31;;;30.70;34.01
8416;BME280;4245;42.120;24.732;2023-05-23T10:17:44;98985.78;;;31.08;32.20
8416;BME280;4245;42.120;24.732;2023-05-23T10:20:15;98979.97;;;31.05;32.22
8416;BME280;4245;42.120;24.732;2023-05-23T10:22:42;98985.31;;;31.00;33.45
8416;BME280;4245;42.120;24.732;2023-05-23T10:25:09;98982.00;;;30.70;34.44
8416;BME280;4245;42.120;24.732;2023-05-23T10:27:36;98979.88;;;30.60;33.70
8416;BME280;4245;42.120;24.732;2023-05-23T10:30:04;98974.13;;;30.73;33.34
8416;BME280;4245;42.120;24.732;2023-05-23T10:32:32;98977.06;;;30.83;32.55
8416;BME280;4245;42.120;24.732;2023-05-23T10:35:08;98970.38;;;30.79;33.40
8416;BME280;4245;42.120;24.732;2023-05-23T10:37:39;98972.59;;;30.65;33.36
8416;BME280;4245;42.120;24.732;2023-05-23T10:40:15;98967.84;;;30.89;32.64
8416;BME280;4245;42.120;24.732;2023-05-23T10:42:48;98966.38;;;31.27;32.37
8416;BME280;4245;42.120;24.732;2023-05-23T10:45:19;98966.38;;;31.60;31.12
8416;BME280;4245;42.120;24.732;2023-05-23T10:47:47;98962.84;;;31.81;31.37
8416;BME280;4245;42.120;24.732;2023-05-23T10:50:28;98965.41;;;32.05;31.20
8416;BME280;4245;42.120;24.732;2023-05-23T10:52:56;98962.22;;;32.13;30.86
8416;BME280;4245;42.120;24.732;2023-05-23T10:55:23;98968.88;;;32.82;29.96
8416;BME280;4245;42.120;24.732;2023-05-23T10:58:07;98970.06;;;33.82;28.11
8416;BME280;4245;42.120;24.732;2023-05-23T11:00:34;98968.47;;;33.22;28.19
8416;BME280;4245;42.120;24.732;2023-05-23T11:03:04;98962.84;;;33.39;28.40
8416;BME280;4245;42.120;24.732;2023-05-23T11:05:34;98963.88;;;33.65;29.12
8416;BME280;4245;42.120;24.732;2023-05-23T11:08:09;98964.22;;;33.41;29.51
8416;BME280;4245;42.120;24.732;2023-05-23T11:10:52;98969.09;;;33.29;29.23
8416;BME280;4245;42.120;24.732;2023-05-23T11:13:20;98960.81;;;33.02;29.41
8416;BME280;4245;42.120;24.732;2023-05-23T11:15:47;98966.16;;;33.73;29.30
8416;BME280;4245;42.120;24.732;2023-05-23T11:18:22;98965.44;;;34.39;28.27
8416;BME280;4245;42.120;24.732;2023-05-23T11:20:51;98968.56;;;34.63;27.98
8416;BME280;4245;42.120;24.732;2023-05-23T11:23:19;98981.66;;;35.03;27.02
8416;BME280;4245;42.120;24.732;2023-05-23T11:25:48;98975.09;;;35.50;26.58
8416;BME280;4245;42.120;24.732;2023-05-23T11:28:16;98986.13;;;35.60;25.61
8416;BME280;4245;42.120;24.732;2023-05-23T11:30:47;98979.78;;;35.59;25.65
8416;BME280;4245;42.120;24.732;2023-05-23T11:33:15;98976.06;;;34.78;27.11
8416;BME280;4245;42.120;24.732;2023-05-23T11:35:43;98966.03;;;33.99;28.17
8416;BME280;4245;42.120;24.732;2023-05-23T11:38:13;98965.34;;;32.87;29.90
8416;BME280;4245;42.120;24.732;2023-05-23T11:40:42;98957.28;;;31.43;32.24
8416;BME280;4245;42.120;24.732;2023-05-23T11:43:10;98964.78;;;31.31;32.19
8416;BME280;4245;42.120;24.732;2023-05-23T11:45:38;98957.69;;;31.01;33.07
8416;BME280;4245;42.120;24.732;2023-05-23T11:48:06;98963.50;;;31.05;33.93
8416;BME280;4245;42.120;24.732;2023-05-23T11:50:34;98962.00;;;30.69;33.96
8416;BME280;4245;42.120;24.732;2023-05-23T11:53:08;98966.28;;;29.78;35.35
8416;BME280;4245;42.120;24.732;2023-05-23T11:55:38;98957.19;;;29.08;36.34
8416;BME280;4245;42.120;24.732;2023-05-23T11:58:05;98972.28;;;28.81;39.15
8416;BME280;4245;42.120;24.732;2023-05-23T12:00:32;98958.69;;;28.44;44.82
8416;BME280;4245;42.120;24.732;2023-05-23T12:03:05;98968.00;;;27.82;46.95
8416;BME280;4245;42.120;24.732;2023-05-23T12:05:32;98960.34;;;27.48;47.53
8416;BME280;4245;42.120;24.732;2023-05-23T12:07:59;98960.69;;;27.02;48.90
8416;BME280;4245;42.120;24.732;2023-05-23T12:10:26;98960.69;;;26.64;50.76
8416;BME280;4245;42.120;24.732;2023-05-23T12:12:55;98955.13;;;26.83;51.42
8416;BME280;4245;42.120;24.732;2023-05-23T12:15:24;98958.34;;;27.61;48.42
8416;BME280;4245;42.120;24.732;2023-05-23T12:17:52;98952.13;;;28.16;45.94
8416;BME280;4245;42.120;24.732;2023-05-23T12:20:19;98950.94;;;28.60;44.41
8416;BME280;4245;42.120;24.732;2023-05-23T12:22:46;98956.72;;;29.23;41.22
8416;BME280;4245;42.120;24.732;2023-05-23T12:25:13;98944.16;;;29.33;40.90
8416;BME280;4245;42.120;24.732;2023-05-23T12:27:40;98942.31;;;29.16;40.63
8416;BME280;4245;42.120;24.732;2023-05-23T12:30:12;98934.94;;;29.05;41.78
8416;BME280;4245;42.120;24.732;2023-05-23T12:32:39;98934.19;;;28.98;40.39
8416;BME280;4245;42.120;24.732;2023-05-23T12:35:08;98934.38;;;29.14;39.12
8416;BME280;4245;42.120;24.732;2023-05-23T12:37:38;98934.16;;;29.39;38.99
8416;BME280;4245;42.120;24.732;2023-05-23T12:40:15;98928.75;;;30.26;38.23
8416;BME280;4245;42.120;24.732;2023-05-23T12:42:49;98923.19;;;30.09;38.37
8416;BME280;4245;42.120;24.732;2023-05-23T12:45:18;98932.53;;;30.64;38.06
8416;BME280;4245;42.120;24.732;2023-05-23T12:47:45;98930.56;;;31.05;35.91
8416;BME280;4245;42.120;24.732;2023-05-23T12:50:12;98919.63;;;31.22;35.11
8416;BME280;4245;42.120;24.732;2023-05-23T12:52:48;98919.59;;;31.55;34.28
8416;BME280;4245;42.120;24.732;2023-05-23T12:55:15;98909.84;;;32.03;33.20
8416;BME280;4245;42.120;24.732;2023-05-23T12:57:42;98912.34;;;32.04;33.82
8416;BME280;4245;42.120;24.732;2023-05-23T13:00:10;98913.13;;;32.00;33.75
8416;BME280;4245;42.120;24.732;2023-05-23T13:02:37;98908.25;;;32.07;32.81
8416;BME280;4245;42.120;24.732;2023-05-23T13:05:04;98901.69;;;32.08;33.57
8416;BME280;4245;42.120;24.732;2023-05-23T13:07:31;98912.50;;;32.36;33.06
8416;BME280;4245;42.120;24.732;2023-05-23T13:10:00;98900.50;;;31.82;33.22
8416;BME280;4245;42.120;24.732;2023-05-23T13:12:27;98907.63;;;32.00;32.95
8416;BME280;4245;42.120;24.732;2023-05-23T13:14:55;98904.03;;;31.99;32.89
8416;BME280;4245;42.120;24.732;2023-05-23T13:17:22;98905.66;;;31.95;32.80